Comandante Gustavo Kraemer Airport


Codes: SBBG/BGX
Name: Comandante Gustavo Kraemer Airport
City: Bage
Country: Brazil
Elevation: 600 ft.

Photos at Comandante Gustavo Kraemer Airport


   Photos courtesy of SpottingLog. You can add your own sightings and photos by signing up for a free trial today.



No photos found.

Weather at Comandante Gustavo Kraemer Airport


Time (UTC)DescriptionTempratureWindCloud coverageVisibilityPressureHumidity
13-Jun-2024 03:00Scattered Clouds21°C13 mph, N33%10000m1012hPa82%
13-Jun-2024 06:00Broken Clouds20°C13 mph, N60%10000m1011hPa79%
13-Jun-2024 09:00Overcast Clouds19°C13 mph, N100%10000m1010hPa71%
13-Jun-2024 12:00Overcast Clouds19°C16 mph, N100%10000m1010hPa71%
13-Jun-2024 15:00Overcast Clouds23°C18 mph, N100%10000m1009hPa64%
13-Jun-2024 18:00Overcast Clouds23°C18 mph, N100%10000m1006hPa67%
13-Jun-2024 21:00Overcast Clouds22°C16 mph, N100%10000m1005hPa65%
14-Jun-2024 00:00Overcast Clouds22°C20 mph, N100%10000m1006hPa64%
14-Jun-2024 03:00Overcast Clouds22°C20 mph, N100%10000m1005hPa56%
14-Jun-2024 06:00Broken Clouds22°C20 mph, N77%10000m1005hPa50%
14-Jun-2024 09:00Overcast Clouds21°C20 mph, N90%10000m1005hPa50%
14-Jun-2024 12:00Overcast Clouds20°C20 mph, N95%10000m1006hPa58%
14-Jun-2024 15:00Overcast Clouds21°C18 mph, N100%10000m1007hPa55%
14-Jun-2024 18:00Overcast Clouds22°C16 mph, N100%10000m1005hPa60%
14-Jun-2024 21:00Light Rain21°C9 mph, N100%10000m1007hPa69%
15-Jun-2024 00:00Overcast Clouds21°C7 mph, NE100%10000m1009hPa72%
15-Jun-2024 03:00Light Rain19°C4 mph, S89%10000m1010hPa79%
15-Jun-2024 06:00Light Rain18°C4 mph, SW94%10000m1011hPa86%
15-Jun-2024 09:00Light Rain16°C4 mph, S98%9004m1012hPa97%
15-Jun-2024 12:00Light Rain18°C4 mph, SE99%10000m1015hPa94%
15-Jun-2024 15:00Light Rain20°C11 mph, SE84%10000m1015hPa86%
15-Jun-2024 18:00Light Rain19°C9 mph, SE92%10000m1014hPa90%
15-Jun-2024 21:00Overcast Clouds18°C13 mph, SE100%10000m1014hPa94%
16-Jun-2024 00:00Moderate Rain17°C13 mph, SE100%10000m1015hPa98%
16-Jun-2024 03:00Moderate Rain16°C13 mph, SE100%10000m1016hPa98%
16-Jun-2024 06:00Moderate Rain16°C4 mph, E100%2849m1016hPa98%
16-Jun-2024 09:00Moderate Rain16°C7 mph, SE100%836m1015hPa98%
16-Jun-2024 12:00Moderate Rain16°C9 mph, E100%10000m1016hPa95%
16-Jun-2024 15:00Light Rain16°C7 mph, SE100%10000m1016hPa95%
16-Jun-2024 18:00Light Rain15°C9 mph, SE100%10000m1014hPa93%
16-Jun-2024 21:00Light Rain15°C13 mph, SE92%10000m1014hPa96%
17-Jun-2024 00:00Broken Clouds14°C11 mph, SE81%10000m1015hPa96%
17-Jun-2024 03:00Light Rain15°C9 mph, SE98%10000m1015hPa96%
17-Jun-2024 06:00Light Rain14°C9 mph, E96%10000m1014hPa93%
17-Jun-2024 09:00Overcast Clouds14°C11 mph, E100%10000m1013hPa91%
17-Jun-2024 12:00Overcast Clouds14°C11 mph, E98%10000m1014hPa90%
17-Jun-2024 15:00Overcast Clouds16°C11 mph, E100%10000m1012hPa87%
17-Jun-2024 18:00Overcast Clouds16°C11 mph, E99%10000m1009hPa88%
17-Jun-2024 21:00Overcast Clouds16°C9 mph, E100%10000m1009hPa92%
18-Jun-2024 00:00Light Rain15°C9 mph, E100%9606m1009hPa96%